sensor_id;sensor_type;location;lat;lon;timestamp;P1;durP1;ratioP1;P2;durP2;ratioP2
54145;SDS011;40052;49.422;7.738;2022-07-29T00:01:17;5.47;;;2.95;;
54145;SDS011;40052;49.422;7.738;2022-07-29T00:03:44;4.22;;;2.50;;
54145;SDS011;40052;49.422;7.738;2022-07-29T00:06:13;4.60;;;3.00;;
54145;SDS011;40052;49.422;7.738;2022-07-29T00:08:39;6.13;;;2.50;;
54145;SDS011;40052;49.422;7.738;2022-07-29T00:11:06;3.78;;;2.38;;
54145;SDS011;40052;49.422;7.738;2022-07-29T00:13:32;2.78;;;2.58;;
54145;SDS011;40052;49.422;7.738;2022-07-29T00:15:57;4.43;;;2.50;;
54145;SDS011;40052;49.422;7.738;2022-07-29T00:18:23;3.95;;;2.67;;
54145;SDS011;40052;49.422;7.738;2022-07-29T00:20:51;4.07;;;2.47;;
54145;SDS011;40052;49.422;7.738;2022-07-29T00:23:16;3.65;;;2.25;;
54145;SDS011;40052;49.422;7.738;2022-07-29T00:25:41;3.10;;;2.65;;
54145;SDS011;40052;49.422;7.738;2022-07-29T00:28:07;7.05;;;2.80;;
54145;SDS011;40052;49.422;7.738;2022-07-29T00:30:32;5.22;;;2.85;;
54145;SDS011;40052;49.422;7.738;2022-07-29T00:32:57;3.40;;;2.50;;
54145;SDS011;40052;49.422;7.738;2022-07-29T00:35:25;6.07;;;2.53;;
54145;SDS011;40052;49.422;7.738;2022-07-29T00:38:12;4.85;;;2.60;;
54145;SDS011;40052;49.422;7.738;2022-07-29T00:40:42;4.75;;;2.65;;
54145;SDS011;40052;49.422;7.738;2022-07-29T00:43:08;3.13;;;2.60;;
54145;SDS011;40052;49.422;7.738;2022-07-29T00:45:34;3.63;;;2.60;;
54145;SDS011;40052;49.422;7.738;2022-07-29T00:48:02;4.30;;;2.40;;
54145;SDS011;40052;49.422;7.738;2022-07-29T00:50:29;4.50;;;2.35;;
54145;SDS011;40052;49.422;7.738;2022-07-29T00:52:56;3.90;;;2.50;;
54145;SDS011;40052;49.422;7.738;2022-07-29T00:55:21;3.47;;;2.70;;
54145;SDS011;40052;49.422;7.738;2022-07-29T00:57:47;6.63;;;2.70;;
54145;SDS011;40052;49.422;7.738;2022-07-29T01:00:14;3.35;;;2.60;;
54145;SDS011;40052;49.422;7.738;2022-07-29T01:02:42;5.05;;;2.55;;
54145;SDS011;40052;49.422;7.738;2022-07-29T01:05:13;3.28;;;2.88;;
54145;SDS011;40052;49.422;7.738;2022-07-29T01:07:42;2.85;;;2.30;;
54145;SDS011;40052;49.422;7.738;2022-07-29T01:10:08;3.55;;;2.20;;
54145;SDS011;40052;49.422;7.738;2022-07-29T01:12:36;4.13;;;2.60;;
54145;SDS011;40052;49.422;7.738;2022-07-29T01:15:03;4.20;;;2.58;;
54145;SDS011;40052;49.422;7.738;2022-07-29T01:20:20;3.78;;;2.47;;
54145;SDS011;40052;49.422;7.738;2022-07-29T01:23:01;3.05;;;2.33;;
54145;SDS011;40052;49.422;7.738;2022-07-29T01:31:16;3.67;;;2.08;;
54145;SDS011;40052;49.422;7.738;2022-07-29T01:33:45;3.95;;;2.75;;
54145;SDS011;40052;49.422;7.738;2022-07-29T01:36:20;3.13;;;2.80;;
54145;SDS011;40052;49.422;7.738;2022-07-29T01:38:50;5.57;;;2.80;;
54145;SDS011;40052;49.422;7.738;2022-07-29T01:41:58;5.13;;;3.03;;
54145;SDS011;40052;49.422;7.738;2022-07-29T01:47:14;3.70;;;2.28;;
54145;SDS011;40052;49.422;7.738;2022-07-29T01:49:43;3.75;;;2.22;;
54145;SDS011;40052;49.422;7.738;2022-07-29T01:52:20;3.70;;;2.30;;
54145;SDS011;40052;49.422;7.738;2022-07-29T01:54:53;3.88;;;2.63;;
54145;SDS011;40052;49.422;7.738;2022-07-29T01:57:28;3.60;;;2.53;;
54145;SDS011;40052;49.422;7.738;2022-07-29T01:59:59;3.13;;;2.42;;
54145;SDS011;40052;49.422;7.738;2022-07-29T02:02:32;4.88;;;2.60;;
54145;SDS011;40052;49.422;7.738;2022-07-29T02:04:59;3.72;;;2.78;;
54145;SDS011;40052;49.422;7.738;2022-07-29T02:07:29;5.40;;;2.97;;
54145;SDS011;40052;49.422;7.738;2022-07-29T02:09:57;5.13;;;3.10;;
54145;SDS011;40052;49.422;7.738;2022-07-29T02:12:25;6.20;;;3.13;;
54145;SDS011;40052;49.422;7.738;2022-07-29T02:14:53;5.82;;;3.20;;
54145;SDS011;40052;49.422;7.738;2022-07-29T02:17:26;3.55;;;3.25;;
54145;SDS011;40052;49.422;7.738;2022-07-29T02:19:59;6.00;;;3.38;;
54145;SDS011;40052;49.422;7.738;2022-07-29T02:22:26;4.07;;;3.20;;
54145;SDS011;40052;49.422;7.738;2022-07-29T02:24:55;3.78;;;3.28;;
54145;SDS011;40052;49.422;7.738;2022-07-29T02:27:24;4.55;;;3.33;;
54145;SDS011;40052;49.422;7.738;2022-07-29T02:29:52;4.45;;;3.80;;
54145;SDS011;40052;49.422;7.738;2022-07-29T02:32:20;5.18;;;3.25;;
54145;SDS011;40052;49.422;7.738;2022-07-29T02:34:47;4.72;;;3.20;;
54145;SDS011;40052;49.422;7.738;2022-07-29T02:37:14;4.22;;;3.30;;
54145;SDS011;40052;49.422;7.738;2022-07-29T02:39:42;5.10;;;3.67;;
54145;SDS011;40052;49.422;7.738;2022-07-29T02:42:10;6.53;;;3.63;;
54145;SDS011;40052;49.422;7.738;2022-07-29T02:44:38;5.45;;;3.20;;
54145;SDS011;40052;49.422;7.738;2022-07-29T02:47:20;5.03;;;3.17;;
54145;SDS011;40052;49.422;7.738;2022-07-29T02:58:09;4.57;;;3.65;;
54145;SDS011;40052;49.422;7.738;2022-07-29T03:00:40;3.60;;;3.20;;
54145;SDS011;40052;49.422;7.738;2022-07-29T03:03:09;6.18;;;3.88;;
54145;SDS011;40052;49.422;7.738;2022-07-29T03:05:37;3.95;;;3.63;;
54145;SDS011;40052;49.422;7.738;2022-07-29T03:08:04;7.32;;;4.28;;
54145;SDS011;40052;49.422;7.738;2022-07-29T03:10:34;6.15;;;4.45;;
54145;SDS011;40052;49.422;7.738;2022-07-29T03:12:59;5.60;;;4.10;;
54145;SDS011;40052;49.422;7.738;2022-07-29T03:15:26;7.13;;;4.13;;
54145;SDS011;40052;49.422;7.738;2022-07-29T03:17:52;6.70;;;4.43;;
54145;SDS011;40052;49.422;7.738;2022-07-29T03:20:20;5.35;;;3.45;;
54145;SDS011;40052;49.422;7.738;2022-07-29T03:22:48;7.38;;;4.30;;
54145;SDS011;40052;49.422;7.738;2022-07-29T03:25:18;4.10;;;3.55;;
54145;SDS011;40052;49.422;7.738;2022-07-29T03:27:45;6.18;;;3.60;;
54145;SDS011;40052;49.422;7.738;2022-07-29T03:30:11;5.50;;;3.70;;
54145;SDS011;40052;49.422;7.738;2022-07-29T03:32:38;4.93;;;4.03;;
54145;SDS011;40052;49.422;7.738;2022-07-29T03:35:06;5.55;;;3.67;;
54145;SDS011;40052;49.422;7.738;2022-07-29T03:37:32;8.85;;;3.83;;
54145;SDS011;40052;49.422;7.738;2022-07-29T03:40:01;6.35;;;3.63;;
54145;SDS011;40052;49.422;7.738;2022-07-29T03:42:32;5.05;;;3.85;;
54145;SDS011;40052;49.422;7.738;2022-07-29T03:45:02;6.00;;;4.15;;
54145;SDS011;40052;49.422;7.738;2022-07-29T03:47:31;4.70;;;4.15;;
54145;SDS011;40052;49.422;7.738;2022-07-29T03:50:00;6.22;;;4.13;;
54145;SDS011;40052;49.422;7.738;2022-07-29T03:52:30;5.68;;;4.50;;
54145;SDS011;40052;49.422;7.738;2022-07-29T03:54:59;6.30;;;4.10;;
54145;SDS011;40052;49.422;7.738;2022-07-29T03:57:30;6.95;;;4.20;;
54145;SDS011;40052;49.422;7.738;2022-07-29T04:00:00;6.60;;;4.15;;
54145;SDS011;40052;49.422;7.738;2022-07-29T04:02:26;4.22;;;3.83;;
54145;SDS011;40052;49.422;7.738;2022-07-29T04:04:52;5.70;;;3.83;;
54145;SDS011;40052;49.422;7.738;2022-07-29T04:07:17;8.30;;;3.80;;
54145;SDS011;40052;49.422;7.738;2022-07-29T04:09:43;5.03;;;3.85;;
54145;SDS011;40052;49.422;7.738;2022-07-29T04:12:11;4.30;;;3.83;;
54145;SDS011;40052;49.422;7.738;2022-07-29T04:14:38;4.95;;;3.58;;
54145;SDS011;40052;49.422;7.738;2022-07-29T04:17:04;5.53;;;4.22;;
54145;SDS011;40052;49.422;7.738;2022-07-29T04:19:30;5.90;;;4.43;;
54145;SDS011;40052;49.422;7.738;2022-07-29T04:21:56;4.63;;;4.00;;
54145;SDS011;40052;49.422;7.738;2022-07-29T04:24:22;5.53;;;4.05;;
54145;SDS011;40052;49.422;7.738;2022-07-29T04:26:48;4.57;;;4.03;;
54145;SDS011;40052;49.422;7.738;2022-07-29T04:29:13;6.28;;;4.05;;
54145;SDS011;40052;49.422;7.738;2022-07-29T04:31:39;5.40;;;4.10;;
54145;SDS011;40052;49.422;7.738;2022-07-29T04:34:05;4.88;;;4.10;;
54145;SDS011;40052;49.422;7.738;2022-07-29T04:36:34;7.53;;;4.38;;
54145;SDS011;40052;49.422;7.738;2022-07-29T04:39:02;4.88;;;4.38;;
54145;SDS011;40052;49.422;7.738;2022-07-29T04:41:32;6.07;;;4.20;;
54145;SDS011;40052;49.422;7.738;2022-07-29T04:43:58;5.07;;;4.22;;
54145;SDS011;40052;49.422;7.738;2022-07-29T04:46:25;8.13;;;4.75;;
54145;SDS011;40052;49.422;7.738;2022-07-29T04:48:51;6.15;;;4.13;;
54145;SDS011;40052;49.422;7.738;2022-07-29T04:51:19;4.40;;;3.65;;
54145;SDS011;40052;49.422;7.738;2022-07-29T04:53:44;5.38;;;3.33;;
54145;SDS011;40052;49.422;7.738;2022-07-29T04:56:11;5.35;;;3.78;;
54145;SDS011;40052;49.422;7.738;2022-07-29T04:58:39;6.50;;;3.42;;
54145;SDS011;40052;49.422;7.738;2022-07-29T05:01:07;4.75;;;4.35;;
54145;SDS011;40052;49.422;7.738;2022-07-29T05:03:35;8.35;;;4.80;;
54145;SDS011;40052;49.422;7.738;2022-07-29T05:06:00;5.45;;;3.78;;
54145;SDS011;40052;49.422;7.738;2022-07-29T05:08:26;5.97;;;4.07;;
54145;SDS011;40052;49.422;7.738;2022-07-29T05:10:51;4.93;;;3.78;;
54145;SDS011;40052;49.422;7.738;2022-07-29T05:13:22;5.10;;;4.07;;
54145;SDS011;40052;49.422;7.738;2022-07-29T05:15:47;5.55;;;3.88;;
54145;SDS011;40052;49.422;7.738;2022-07-29T05:18:12;6.32;;;4.07;;
54145;SDS011;40052;49.422;7.738;2022-07-29T05:20:39;6.90;;;3.97;;
54145;SDS011;40052;49.422;7.738;2022-07-29T05:23:09;5.60;;;4.43;;
54145;SDS011;40052;49.422;7.738;2022-07-29T05:25:40;7.88;;;4.22;;
54145;SDS011;40052;49.422;7.738;2022-07-29T05:28:05;5.88;;;4.40;;
54145;SDS011;40052;49.422;7.738;2022-07-29T05:30:30;4.93;;;4.43;;
54145;SDS011;40052;49.422;7.738;2022-07-29T05:32:56;7.32;;;4.43;;
54145;SDS011;40052;49.422;7.738;2022-07-29T05:35:21;4.82;;;3.80;;
54145;SDS011;40052;49.422;7.738;2022-07-29T05:37:47;4.68;;;4.15;;
54145;SDS011;40052;49.422;7.738;2022-07-29T05:40:12;6.80;;;4.57;;
54145;SDS011;40052;49.422;7.738;2022-07-29T05:42:40;4.10;;;3.58;;
54145;SDS011;40052;49.422;7.738;2022-07-29T05:45:06;6.82;;;4.40;;
54145;SDS011;40052;49.422;7.738;2022-07-29T05:47:32;6.80;;;3.67;;
54145;SDS011;40052;49.422;7.738;2022-07-29T05:50:00;7.55;;;4.25;;
54145;SDS011;40052;49.422;7.738;2022-07-29T05:52:30;5.65;;;4.22;;
54145;SDS011;40052;49.422;7.738;2022-07-29T05:54:57;5.85;;;4.72;;
54145;SDS011;40052;49.422;7.738;2022-07-29T05:57:23;5.35;;;4.35;;
54145;SDS011;40052;49.422;7.738;2022-07-29T05:59:49;6.43;;;4.50;;
54145;SDS011;40052;49.422;7.738;2022-07-29T06:02:15;7.18;;;4.60;;
54145;SDS011;40052;49.422;7.738;2022-07-29T06:04:44;7.03;;;4.65;;
54145;SDS011;40052;49.422;7.738;2022-07-29T06:07:12;5.75;;;4.65;;
54145;SDS011;40052;49.422;7.738;2022-07-29T06:09:42;4.03;;;3.65;;
54145;SDS011;40052;49.422;7.738;2022-07-29T06:12:08;6.15;;;4.05;;
54145;SDS011;40052;49.422;7.738;2022-07-29T06:14:36;5.70;;;4.05;;
54145;SDS011;40052;49.422;7.738;2022-07-29T06:17:06;5.43;;;4.28;;
54145;SDS011;40052;49.422;7.738;2022-07-29T06:19:33;5.40;;;3.92;;
54145;SDS011;40052;49.422;7.738;2022-07-29T06:21:59;5.38;;;3.78;;
54145;SDS011;40052;49.422;7.738;2022-07-29T06:24:25;7.53;;;4.03;;
54145;SDS011;40052;49.422;7.738;2022-07-29T06:26:52;5.43;;;3.97;;
54145;SDS011;40052;49.422;7.738;2022-07-29T06:29:18;6.82;;;4.25;;
54145;SDS011;40052;49.422;7.738;2022-07-29T06:31:43;4.70;;;3.42;;
54145;SDS011;40052;49.422;7.738;2022-07-29T06:34:11;8.55;;;4.70;;
54145;SDS011;40052;49.422;7.738;2022-07-29T06:36:39;7.63;;;4.97;;
54145;SDS011;40052;49.422;7.738;2022-07-29T06:39:07;6.57;;;4.25;;
54145;SDS011;40052;49.422;7.738;2022-07-29T06:41:33;7.47;;;4.70;;
54145;SDS011;40052;49.422;7.738;2022-07-29T06:43:59;7.28;;;4.20;;
54145;SDS011;40052;49.422;7.738;2022-07-29T06:46:24;4.97;;;3.35;;
54145;SDS011;40052;49.422;7.738;2022-07-29T06:48:50;7.65;;;4.05;;
54145;SDS011;40052;49.422;7.738;2022-07-29T06:51:16;3.95;;;3.20;;
54145;SDS011;40052;49.422;7.738;2022-07-29T06:53:44;5.18;;;3.70;;
54145;SDS011;40052;49.422;7.738;2022-07-29T06:56:14;7.50;;;3.63;;
54145;SDS011;40052;49.422;7.738;2022-07-29T06:58:39;6.03;;;3.53;;
54145;SDS011;40052;49.422;7.738;2022-07-29T07:01:07;8.63;;;3.45;;
54145;SDS011;40052;49.422;7.738;2022-07-29T07:03:32;4.03;;;3.10;;
54145;SDS011;40052;49.422;7.738;2022-07-29T07:05:58;6.25;;;3.20;;
54145;SDS011;40052;49.422;7.738;2022-07-29T07:08:24;6.57;;;3.28;;
54145;SDS011;40052;49.422;7.738;2022-07-29T07:10:50;7.25;;;3.15;;
54145;SDS011;40052;49.422;7.738;2022-07-29T07:13:16;6.82;;;3.15;;
54145;SDS011;40052;49.422;7.738;2022-07-29T07:15:42;6.03;;;3.80;;
54145;SDS011;40052;49.422;7.738;2022-07-29T07:18:11;5.90;;;3.63;;
54145;SDS011;40052;49.422;7.738;2022-07-29T07:20:39;6.15;;;4.07;;
54145;SDS011;40052;49.422;7.738;2022-07-29T07:23:04;5.57;;;3.90;;
54145;SDS011;40052;49.422;7.738;2022-07-29T07:25:30;10.07;;;4.30;;
54145;SDS011;40052;49.422;7.738;2022-07-29T07:27:56;4.93;;;3.53;;
54145;SDS011;40052;49.422;7.738;2022-07-29T07:30:22;5.50;;;3.25;;
54145;SDS011;40052;49.422;7.738;2022-07-29T07:32:49;6.25;;;3.03;;
54145;SDS011;40052;49.422;7.738;2022-07-29T07:35:15;3.80;;;3.10;;
54145;SDS011;40052;49.422;7.738;2022-07-29T07:37:40;4.10;;;3.00;;
54145;SDS011;40052;49.422;7.738;2022-07-29T07:40:06;5.28;;;3.40;;
54145;SDS011;40052;49.422;7.738;2022-07-29T07:42:33;5.18;;;3.10;;
54145;SDS011;40052;49.422;7.738;2022-07-29T07:44:59;4.38;;;3.33;;
54145;SDS011;40052;49.422;7.738;2022-07-29T07:47:24;6.68;;;4.03;;
54145;SDS011;40052;49.422;7.738;2022-07-29T07:49:50;5.72;;;3.50;;
54145;SDS011;40052;49.422;7.738;2022-07-29T07:52:16;10.23;;;3.97;;
54145;SDS011;40052;49.422;7.738;2022-07-29T07:54:42;4.65;;;3.20;;
54145;SDS011;40052;49.422;7.738;2022-07-29T07:57:09;4.45;;;3.63;;
54145;SDS011;40052;49.422;7.738;2022-07-29T07:59:35;9.38;;;3.83;;
54145;SDS011;40052;49.422;7.738;2022-07-29T08:02:00;7.82;;;3.40;;
54145;SDS011;40052;49.422;7.738;2022-07-29T08:04:28;5.30;;;3.13;;
54145;SDS011;40052;49.422;7.738;2022-07-29T08:06:56;7.93;;;3.83;;
54145;SDS011;40052;49.422;7.738;2022-07-29T08:09:23;7.32;;;3.42;;
54145;SDS011;40052;49.422;7.738;2022-07-29T08:11:54;5.50;;;3.08;;
54145;SDS011;40052;49.422;7.738;2022-07-29T08:14:20;4.85;;;2.95;;
54145;SDS011;40052;49.422;7.738;2022-07-29T08:16:46;6.88;;;4.05;;
54145;SDS011;40052;49.422;7.738;2022-07-29T08:19:14;7.28;;;3.45;;
54145;SDS011;40052;49.422;7.738;2022-07-29T08:21:42;7.18;;;3.03;;
54145;SDS011;40052;49.422;7.738;2022-07-29T08:24:07;3.92;;;3.03;;
54145;SDS011;40052;49.422;7.738;2022-07-29T08:26:51;4.13;;;2.60;;
54145;SDS011;40052;49.422;7.738;2022-07-29T08:29:16;8.02;;;3.30;;
54145;SDS011;40052;49.422;7.738;2022-07-29T08:31:42;7.80;;;3.40;;
54145;SDS011;40052;49.422;7.738;2022-07-29T08:34:10;6.30;;;3.08;;
54145;SDS011;40052;49.422;7.738;2022-07-29T08:36:36;4.15;;;3.00;;
54145;SDS011;40052;49.422;7.738;2022-07-29T08:39:03;6.00;;;3.33;;
54145;SDS011;40052;49.422;7.738;2022-07-29T08:41:29;5.75;;;3.22;;
54145;SDS011;40052;49.422;7.738;2022-07-29T08:43:54;5.22;;;2.55;;
54145;SDS011;40052;49.422;7.738;2022-07-29T08:46:20;5.60;;;2.90;;
54145;SDS011;40052;49.422;7.738;2022-07-29T08:48:50;4.50;;;3.03;;
54145;SDS011;40052;49.422;7.738;2022-07-29T08:51:19;4.03;;;2.78;;
54145;SDS011;40052;49.422;7.738;2022-07-29T08:53:48;3.00;;;2.72;;
54145;SDS011;40052;49.422;7.738;2022-07-29T08:56:17;4.45;;;2.97;;
54145;SDS011;40052;49.422;7.738;2022-07-29T08:58:46;7.75;;;3.35;;
54145;SDS011;40052;49.422;7.738;2022-07-29T09:01:16;5.22;;;3.33;;
54145;SDS011;40052;49.422;7.738;2022-07-29T09:03:45;7.63;;;3.40;;
54145;SDS011;40052;49.422;7.738;2022-07-29T09:06:14;3.45;;;3.00;;
54145;SDS011;40052;49.422;7.738;2022-07-29T09:08:41;4.45;;;3.40;;
54145;SDS011;40052;49.422;7.738;2022-07-29T09:11:07;7.53;;;3.85;;
54145;SDS011;40052;49.422;7.738;2022-07-29T09:13:33;4.85;;;3.15;;
54145;SDS011;40052;49.422;7.738;2022-07-29T09:16:01;6.15;;;3.15;;
54145;SDS011;40052;49.422;7.738;2022-07-29T09:18:34;7.18;;;3.42;;
54145;SDS011;40052;49.422;7.738;2022-07-29T09:21:04;7.03;;;3.50;;
54145;SDS011;40052;49.422;7.738;2022-07-29T09:26:29;5.75;;;3.40;;
54145;SDS011;40052;49.422;7.738;2022-07-29T09:29:12;4.43;;;3.22;;
54145;SDS011;40052;49.422;7.738;2022-07-29T09:31:41;6.90;;;3.92;;
54145;SDS011;40052;49.422;7.738;2022-07-29T09:34:11;20.17;;;4.72;;
54145;SDS011;40052;49.422;7.738;2022-07-29T09:36:45;7.53;;;4.15;;
54145;SDS011;40052;49.422;7.738;2022-07-29T09:39:12;8.98;;;3.15;;
54145;SDS011;40052;49.422;7.738;2022-07-29T09:41:46;5.93;;;3.45;;
54145;SDS011;40052;49.422;7.738;2022-07-29T09:44:15;6.38;;;3.28;;
54145;SDS011;40052;49.422;7.738;2022-07-29T09:46:53;4.63;;;3.45;;
54145;SDS011;40052;49.422;7.738;2022-07-29T09:49:19;5.95;;;3.30;;
54145;SDS011;40052;49.422;7.738;2022-07-29T09:51:45;6.15;;;3.00;;
54145;SDS011;40052;49.422;7.738;2022-07-29T09:56:49;5.43;;;3.22;;
54145;SDS011;40052;49.422;7.738;2022-07-29T09:59:15;5.55;;;3.30;;
54145;SDS011;40052;49.422;7.738;2022-07-29T10:01:45;5.47;;;3.08;;
54145;SDS011;40052;49.422;7.738;2022-07-29T10:04:10;5.38;;;3.10;;
54145;SDS011;40052;49.422;7.738;2022-07-29T10:06:57;4.43;;;3.35;;
54145;SDS011;40052;49.422;7.738;2022-07-29T10:09:24;5.28;;;3.10;;
54145;SDS011;40052;49.422;7.738;2022-07-29T10:14:49;5.80;;;3.10;;
54145;SDS011;40052;49.422;7.738;2022-07-29T10:17:17;5.20;;;3.30;;
54145;SDS011;40052;49.422;7.738;2022-07-29T10:19:44;4.45;;;3.30;;
54145;SDS011;40052;49.422;7.738;2022-07-29T10:22:13;5.82;;;3.00;;
54145;SDS011;40052;49.422;7.738;2022-07-29T10:24:41;4.38;;;3.28;;
54145;SDS011;40052;49.422;7.738;2022-07-29T10:27:07;4.35;;;3.42;;
54145;SDS011;40052;49.422;7.738;2022-07-29T10:29:33;3.40;;;3.10;;
54145;SDS011;40052;49.422;7.738;2022-07-29T10:40:22;6.20;;;2.93;;
54145;SDS011;40052;49.422;7.738;2022-07-29T10:43:19;3.92;;;3.05;;
54145;SDS011;40052;49.422;7.738;2022-07-29T10:45:57;4.03;;;2.90;;
54145;SDS011;40052;49.422;7.738;2022-07-29T10:48:24;6.15;;;3.20;;
54145;SDS011;40052;49.422;7.738;2022-07-29T10:53:18;5.55;;;3.15;;
54145;SDS011;40052;49.422;7.738;2022-07-29T10:55:43;4.10;;;3.00;;
54145;SDS011;40052;49.422;7.738;2022-07-29T11:00:40;4.47;;;2.75;;
54145;SDS011;40052;49.422;7.738;2022-07-29T11:03:05;5.63;;;2.70;;
54145;SDS011;40052;49.422;7.738;2022-07-29T11:05:51;4.28;;;2.90;;
54145;SDS011;40052;49.422;7.738;2022-07-29T11:08:19;6.80;;;2.97;;
54145;SDS011;40052;49.422;7.738;2022-07-29T11:10:48;3.78;;;2.78;;
54145;SDS011;40052;49.422;7.738;2022-07-29T11:16:08;5.22;;;2.53;;
54145;SDS011;40052;49.422;7.738;2022-07-29T11:18:33;6.40;;;2.70;;
54145;SDS011;40052;49.422;7.738;2022-07-29T11:20:58;7.75;;;2.88;;
54145;SDS011;40052;49.422;7.738;2022-07-29T11:28:34;3.13;;;2.40;;
54145;SDS011;40052;49.422;7.738;2022-07-29T11:31:04;3.90;;;2.45;;
54145;SDS011;40052;49.422;7.738;2022-07-29T11:33:36;3.80;;;2.55;;
54145;SDS011;40052;49.422;7.738;2022-07-29T11:38:38;4.22;;;2.60;;
54145;SDS011;40052;49.422;7.738;2022-07-29T11:41:23;4.97;;;2.40;;
54145;SDS011;40052;49.422;7.738;2022-07-29T11:43:59;3.88;;;2.45;;
54145;SDS011;40052;49.422;7.738;2022-07-29T11:51:53;2.58;;;2.22;;
54145;SDS011;40052;49.422;7.738;2022-07-29T11:54:26;5.22;;;2.53;;
54145;SDS011;40052;49.422;7.738;2022-07-29T11:56:57;5.20;;;2.33;;
54145;SDS011;40052;49.422;7.738;2022-07-29T11:59:23;3.35;;;2.38;;
54145;SDS011;40052;49.422;7.738;2022-07-29T12:01:56;3.90;;;2.40;;
54145;SDS011;40052;49.422;7.738;2022-07-29T12:04:22;5.73;;;2.20;;
54145;SDS011;40052;49.422;7.738;2022-07-29T12:06:54;4.47;;;2.13;;
54145;SDS011;40052;49.422;7.738;2022-07-29T12:09:20;3.63;;;2.65;;
54145;SDS011;40052;49.422;7.738;2022-07-29T12:11:49;4.70;;;2.25;;
54145;SDS011;40052;49.422;7.738;2022-07-29T12:14:28;4.05;;;2.00;;
54145;SDS011;40052;49.422;7.738;2022-07-29T12:16:57;3.15;;;2.20;;
54145;SDS011;40052;49.422;7.738;2022-07-29T12:19:26;3.35;;;2.38;;
54145;SDS011;40052;49.422;7.738;2022-07-29T12:21:55;4.40;;;2.25;;
54145;SDS011;40052;49.422;7.738;2022-07-29T12:24:23;4.03;;;2.10;;
54145;SDS011;40052;49.422;7.738;2022-07-29T12:26:52;4.55;;;2.13;;
54145;SDS011;40052;49.422;7.738;2022-07-29T12:29:19;2.33;;;1.75;;
54145;SDS011;40052;49.422;7.738;2022-07-29T12:31:45;2.80;;;2.28;;
54145;SDS011;40052;49.422;7.738;2022-07-29T12:34:13;4.57;;;1.98;;
54145;SDS011;40052;49.422;7.738;2022-07-29T12:36:42;5.07;;;2.40;;
54145;SDS011;40052;49.422;7.738;2022-07-29T12:39:08;3.35;;;2.20;;
54145;SDS011;40052;49.422;7.738;2022-07-29T12:41:36;4.03;;;2.08;;
54145;SDS011;40052;49.422;7.738;2022-07-29T12:44:02;3.05;;;2.00;;
54145;SDS011;40052;49.422;7.738;2022-07-29T12:46:28;2.90;;;2.22;;
54145;SDS011;40052;49.422;7.738;2022-07-29T12:48:54;6.72;;;2.15;;
54145;SDS011;40052;49.422;7.738;2022-07-29T12:51:29;3.53;;;2.17;;
54145;SDS011;40052;49.422;7.738;2022-07-29T12:54:09;4.82;;;2.15;;
54145;SDS011;40052;49.422;7.738;2022-07-29T12:56:38;1.90;;;1.52;;
54145;SDS011;40052;49.422;7.738;2022-07-29T12:59:14;3.42;;;1.77;;
54145;SDS011;40052;49.422;7.738;2022-07-29T13:01:42;2.65;;;2.30;;
54145;SDS011;40052;49.422;7.738;2022-07-29T13:04:08;4.18;;;2.08;;
54145;SDS011;40052;49.422;7.738;2022-07-29T13:06:38;3.25;;;2.10;;
54145;SDS011;40052;49.422;7.738;2022-07-29T13:11:37;3.38;;;2.15;;
54145;SDS011;40052;49.422;7.738;2022-07-29T13:14:05;5.70;;;2.30;;
54145;SDS011;40052;49.422;7.738;2022-07-29T13:16:32;3.22;;;2.30;;
54145;SDS011;40052;49.422;7.738;2022-07-29T13:19:10;5.55;;;1.85;;
54145;SDS011;40052;49.422;7.738;2022-07-29T13:21:37;3.95;;;2.10;;
54145;SDS011;40052;49.422;7.738;2022-07-29T13:24:05;2.85;;;1.98;;
54145;SDS011;40052;49.422;7.738;2022-07-29T13:26:31;3.45;;;2.00;;
54145;SDS011;40052;49.422;7.738;2022-07-29T13:28:57;3.72;;;2.00;;
54145;SDS011;40052;49.422;7.738;2022-07-29T13:31:23;3.90;;;2.28;;
54145;SDS011;40052;49.422;7.738;2022-07-29T13:33:49;5.30;;;2.05;;
54145;SDS011;40052;49.422;7.738;2022-07-29T13:36:14;3.80;;;1.85;;
54145;SDS011;40052;49.422;7.738;2022-07-29T13:38:40;2.38;;;1.77;;
54145;SDS011;40052;49.422;7.738;2022-07-29T13:41:05;3.28;;;2.50;;
54145;SDS011;40052;49.422;7.738;2022-07-29T13:43:31;6.10;;;2.10;;
54145;SDS011;40052;49.422;7.738;2022-07-29T13:45:56;4.88;;;1.85;;
54145;SDS011;40052;49.422;7.738;2022-07-29T13:48:21;3.40;;;1.92;;
54145;SDS011;40052;49.422;7.738;2022-07-29T13:50:50;3.30;;;1.70;;
54145;SDS011;40052;49.422;7.738;2022-07-29T13:53:15;4.28;;;1.70;;
54145;SDS011;40052;49.422;7.738;2022-07-29T13:55:41;7.68;;;1.98;;
54145;SDS011;40052;49.422;7.738;2022-07-29T13:58:06;2.22;;;1.40;;
54145;SDS011;40052;49.422;7.738;2022-07-29T14:00:34;4.00;;;1.48;;
54145;SDS011;40052;49.422;7.738;2022-07-29T14:02:59;3.50;;;1.50;;
54145;SDS011;40052;49.422;7.738;2022-07-29T14:05:25;2.42;;;1.90;;
54145;SDS011;40052;49.422;7.738;2022-07-29T14:07:50;5.80;;;1.65;;
54145;SDS011;40052;49.422;7.738;2022-07-29T14:10:16;3.85;;;1.50;;
54145;SDS011;40052;49.422;7.738;2022-07-29T14:12:41;3.83;;;1.65;;
54145;SDS011;40052;49.422;7.738;2022-07-29T14:15:07;2.10;;;1.60;;
54145;SDS011;40052;49.422;7.738;2022-07-29T14:17:32;1.77;;;1.50;;
54145;SDS011;40052;49.422;7.738;2022-07-29T14:19:58;1.40;;;1.30;;
54145;SDS011;40052;49.422;7.738;2022-07-29T14:22:23;3.83;;;1.60;;
54145;SDS011;40052;49.422;7.738;2022-07-29T14:24:50;1.95;;;1.52;;
54145;SDS011;40052;49.422;7.738;2022-07-29T14:27:15;8.27;;;2.00;;
54145;SDS011;40052;49.422;7.738;2022-07-29T14:29:40;5.22;;;1.92;;
54145;SDS011;40052;49.422;7.738;2022-07-29T14:32:09;3.13;;;1.80;;
54145;SDS011;40052;49.422;7.738;2022-07-29T14:34:35;7.28;;;1.80;;
54145;SDS011;40052;49.422;7.738;2022-07-29T14:37:01;2.60;;;1.80;;
54145;SDS011;40052;49.422;7.738;2022-07-29T14:39:30;2.08;;;1.50;;
54145;SDS011;40052;49.422;7.738;2022-07-29T14:41:55;4.00;;;1.80;;
54145;SDS011;40052;49.422;7.738;2022-07-29T14:44:23;2.05;;;1.55;;
54145;SDS011;40052;49.422;7.738;2022-07-29T14:46:49;3.38;;;1.80;;
54145;SDS011;40052;49.422;7.738;2022-07-29T14:49:14;2.28;;;1.58;;
54145;SDS011;40052;49.422;7.738;2022-07-29T14:51:40;4.93;;;1.70;;
54145;SDS011;40052;49.422;7.738;2022-07-29T14:54:05;4.55;;;1.58;;
54145;SDS011;40052;49.422;7.738;2022-07-29T14:56:33;3.33;;;2.22;;
54145;SDS011;40052;49.422;7.738;2022-07-29T14:58:58;3.63;;;1.77;;
54145;SDS011;40052;49.422;7.738;2022-07-29T15:01:26;2.50;;;1.90;;
54145;SDS011;40052;49.422;7.738;2022-07-29T15:03:54;4.18;;;1.88;;
54145;SDS011;40052;49.422;7.738;2022-07-29T15:06:19;3.80;;;1.70;;
54145;SDS011;40052;49.422;7.738;2022-07-29T15:08:45;3.38;;;1.70;;
54145;SDS011;40052;49.422;7.738;2022-07-29T15:11:12;3.17;;;1.58;;
54145;SDS011;40052;49.422;7.738;2022-07-29T15:13:40;4.68;;;1.60;;
54145;SDS011;40052;49.422;7.738;2022-07-29T15:16:07;6.00;;;2.05;;
54145;SDS011;40052;49.422;7.738;2022-07-29T15:18:34;3.50;;;1.90;;
54145;SDS011;40052;49.422;7.738;2022-07-29T15:20:59;3.03;;;1.60;;
54145;SDS011;40052;49.422;7.738;2022-07-29T15:23:26;3.40;;;1.40;;
54145;SDS011;40052;49.422;7.738;2022-07-29T15:25:52;2.63;;;1.63;;
54145;SDS011;40052;49.422;7.738;2022-07-29T15:28:17;5.10;;;1.80;;
54145;SDS011;40052;49.422;7.738;2022-07-29T15:30:43;2.05;;;1.50;;
54145;SDS011;40052;49.422;7.738;2022-07-29T15:33:08;2.88;;;1.55;;
54145;SDS011;40052;49.422;7.738;2022-07-29T15:35:36;3.28;;;1.50;;
54145;SDS011;40052;49.422;7.738;2022-07-29T15:38:02;3.70;;;1.60;;
54145;SDS011;40052;49.422;7.738;2022-07-29T15:40:30;3.67;;;1.85;;
54145;SDS011;40052;49.422;7.738;2022-07-29T15:42:56;2.58;;;1.58;;
54145;SDS011;40052;49.422;7.738;2022-07-29T15:45:22;5.05;;;1.73;;
54145;SDS011;40052;49.422;7.738;2022-07-29T15:47:49;4.00;;;1.58;;
54145;SDS011;40052;49.422;7.738;2022-07-29T15:50:17;3.10;;;1.58;;
54145;SDS011;40052;49.422;7.738;2022-07-29T15:52:45;5.07;;;1.40;;